< < Back
Terminal Aerodrome Forecast


Current Version              Previous Versions:   1  2  3  4  5  6  7  8  9  

Terminal Aerodrome Forecast

585
FTUS42 KMLB 292200 AAC
TAFMCO
TAF AMD
KMCO 292201Z 2922/3018 33005KT 5SM -TSRA SCT015CB BKN045 OVC120
     FM292300 VRB04KT P6SM VCSH SCT030 BKN120 OVC250
     FM300200 VRB03KT P6SM SCT060 BKN200
     FM300500 00000KT P6SM SCT250
     FM301400 16005KT P6SM SCT035=

Latest METAR

683
SAUS70 KWBC 282200 RRX
MTRMCO
METAR KMCO 292153Z 33005KT 5SM -TSRA BR SCT017 BKN049CB BKN060 OVC130
24/23 A3007 RMK AO2 RAB03 SLP181 OCNL LTGICCG OHD ALQDS TS
OHD ALQDS MOV E P0012 T02390228


USA.gov is the U.S. government's official web portal to all federal, state and local government web resources and services.